Terminal Aerodrome Forecast
Issued by NWS Tuscon, AZ

Home | Current Version | Previous Version | Text Only | Print | Product List | Glossary On
Versions: 1 2 3 4 5 6 7 8 9 10 11 12 13 14 15 16
000
FTUS45 KTWC 031737
TAFTUS
TAF
KTUS 031737Z 0318/0418 32007KT P6SM FEW100 BKN250
     FM040200 09008KT P6SM SCT100 BKN200
     FM040700 15006KT P6SM FEW120 BKN250=

USA.gov is the U.S. government's official web portal to all federal, state and local government web resources and services.